sim
Sign-in with your pilot id or email,
or register
Callsign
Passwort

Schedule Details

Flight Number: DLH2231
Departure: Paris Charles de Gaulle Airport (LFPG) at 14:40
Arrival: Munich Airport (EDDM) at 16:05
Route: Lufthansa Passenger Schedule. Enter filed route here before submitting Pirep.

Weather Information
Getting current METAR information for LFPG 250300Z 20016KT 9999 BKN020 10/06 Q0997 NOSIG
Getting current METAR information for EDDM 250320Z 22007KT 9999 -RA FEW008 SCT043 13/12 Q1002 NOSIG

Schedule Frequency

Route Map